Time;durP1;ratioP1;P1;durP2;ratioP2;P2;SDS_P1;SDS_P2;PMS_P1;PMS_P2;Temp;Humidity;BMP_temperature;BMP_pressure;BME280_temperature;BME280_humidity;BME280_pressure;Samples;Min_cycle;Max_cycle;Signal;HPM_P1;HPM_P2
2023/09/26 00:00:56;;;;;;;4.93;2.60;;;14.60;99.90;;;;;;5002994;28;20394;-70
2023/09/26 00:03:22;;;;;;;12.38;3.00;;;14.70;99.90;;;;;;5003498;28;20045;-73
2023/09/26 00:05:52;;;;;;;7.40;2.75;;;14.60;99.90;;;;;;4997645;28;20044;-71
2023/09/26 00:08:18;;;;;;;6.22;3.05;;;14.60;99.90;;;;;;5000684;28;20072;-70
2023/09/26 00:10:46;;;;;;;5.60;2.55;;;14.50;99.90;;;;;;5008327;28;20057;-71
2023/09/26 00:13:12;;;;;;;6.47;2.58;;;14.50;99.90;;;;;;5009239;28;20106;-73
2023/09/26 00:15:38;;;;;;;7.00;2.90;;;14.50;99.90;;;;;;5007844;28;20550;-71
2023/09/26 00:18:05;;;;;;;9.73;3.13;;;14.40;99.90;;;;;;5004875;28;20138;-72
2023/09/26 00:20:34;;;;;;;7.72;2.50;;;14.40;99.90;;;;;;5006027;28;20490;-70
2023/09/26 00:23:00;;;;;;;5.43;2.58;;;14.40;99.90;;;;;;5001737;28;20413;-71
2023/09/26 00:25:26;;;;;;;6.80;2.65;;;14.30;99.90;;;;;;5010079;28;20026;-70
2023/09/26 00:27:52;;;;;;;9.50;3.05;;;14.30;99.90;;;;;;5005698;28;20030;-70
2023/09/26 00:30:19;;;;;;;6.80;3.22;;;14.30;99.90;;;;;;5005485;28;20121;-70
2023/09/26 00:32:44;;;;;;;9.80;3.42;;;14.30;99.90;;;;;;5007325;28;20038;-70
2023/09/26 00:35:13;;;;;;;5.78;2.72;;;14.30;99.90;;;;;;5004911;28;21561;-70
2023/09/26 00:37:40;;;;;;;8.77;3.17;;;14.30;99.90;;;;;;5007421;28;20042;-71
2023/09/26 00:40:16;;;;;;;6.50;3.33;;;14.30;99.90;;;;;;5005468;28;20039;-71
2023/09/26 00:42:45;;;;;;;5.90;2.78;;;14.20;99.90;;;;;;5004679;28;20042;-71
2023/09/26 00:45:12;;;;;;;7.30;2.90;;;14.30;99.90;;;;;;5001725;28;20069;-70
2023/09/26 00:47:39;;;;;;;7.68;3.33;;;14.20;99.90;;;;;;5005154;28;20116;-70
2023/09/26 00:50:12;;;;;;;9.60;4.40;;;14.20;99.90;;;;;;5004453;28;20048;-70
2023/09/26 00:52:44;;;;;;;7.47;4.18;;;14.30;99.90;;;;;;5002835;28;20050;-72
2023/09/26 00:55:10;;;;;;;11.75;4.47;;;14.30;99.90;;;;;;5002569;28;20037;-71
2023/09/26 00:57:37;;;;;;;11.13;4.63;;;14.30;99.90;;;;;;5008499;28;20038;-71
2023/09/26 01:00:04;;;;;;;8.73;4.57;;;14.40;99.90;;;;;;5008279;28;20057;-70
2023/09/26 01:02:30;;;;;;;11.07;4.90;;;14.40;99.90;;;;;;5003509;28;20041;-71
2023/09/26 01:04:56;;;;;;;8.60;4.65;;;14.50;99.90;;;;;;5006347;28;20524;-72
2023/09/26 01:07:22;;;;;;;11.63;5.05;;;14.50;99.90;;;;;;5002881;28;20071;-70
2023/09/26 01:09:49;;;;;;;9.48;4.65;;;14.50;99.90;;;;;;5007225;28;20048;-71
2023/09/26 01:12:16;;;;;;;8.20;4.22;;;14.50;99.90;;;;;;5003756;28;20135;-70
2023/09/26 01:14:41;;;;;;;7.85;4.60;;;14.50;99.90;;;;;;5004053;28;20041;-70
2023/09/26 01:17:07;;;;;;;8.02;4.68;;;14.50;99.90;;;;;;5010556;28;20162;-70
2023/09/26 01:19:33;;;;;;;9.43;4.45;;;14.50;99.90;;;;;;5007136;28;20084;-70
2023/09/26 01:21:59;;;;;;;10.85;4.75;;;14.60;99.90;;;;;;5005693;28;20513;-72
2023/09/26 01:24:25;;;;;;;10.50;4.78;;;14.60;99.90;;;;;;5012183;28;20034;-71
2023/09/26 01:26:50;;;;;;;7.03;4.72;;;14.60;99.90;;;;;;5012172;28;20513;-70
2023/09/26 01:29:16;;;;;;;11.32;4.80;;;14.60;99.90;;;;;;5007683;28;20418;-71
2023/09/26 01:31:42;;;;;;;12.02;4.78;;;14.60;99.90;;;;;;5008034;28;20038;-71
2023/09/26 01:34:07;;;;;;;7.65;4.40;;;14.70;99.90;;;;;;5005569;28;20235;-71
2023/09/26 01:36:33;;;;;;;8.00;4.70;;;14.70;99.90;;;;;;5009153;28;20042;-71
2023/09/26 01:38:59;;;;;;;9.48;5.53;;;14.80;99.90;;;;;;5007884;28;20045;-71
2023/09/26 01:41:26;;;;;;;9.20;5.10;;;14.80;99.90;;;;;;5004767;28;20034;-71
2023/09/26 01:43:51;;;;;;;10.90;4.22;;;14.80;99.90;;;;;;5008122;28;20042;-71
2023/09/26 01:46:20;;;;;;;8.05;4.22;;;14.90;99.90;;;;;;5009096;28;20045;-71
2023/09/26 01:48:46;;;;;;;9.40;4.50;;;14.90;99.90;;;;;;5007455;28;20041;-70
2023/09/26 01:51:12;;;;;;;11.35;3.92;;;14.90;99.90;;;;;;5008448;28;20030;-72
2023/09/26 01:53:38;;;;;;;10.40;4.13;;;14.90;99.90;;;;;;5006940;28;20236;-71
2023/09/26 01:56:04;;;;;;;7.63;4.65;;;14.90;99.90;;;;;;5003314;28;20116;-71
2023/09/26 01:58:29;;;;;;;9.63;4.70;;;14.90;99.90;;;;;;5010475;28;20394;-70
2023/09/26 02:00:55;;;;;;;10.93;5.65;;;14.90;99.90;;;;;;5004211;28;20103;-70
2023/09/26 02:03:22;;;;;;;9.45;4.68;;;14.90;99.90;;;;;;5003831;28;20475;-72
2023/09/26 02:05:47;;;;;;;7.45;4.25;;;15.00;99.90;;;;;;5004550;28;20049;-71
2023/09/26 02:08:15;;;;;;;7.78;4.70;;;15.00;99.90;;;;;;5001741;28;20033;-70
2023/09/26 02:10:41;;;;;;;7.90;4.20;;;15.00;99.90;;;;;;5008598;28;20033;-70
2023/09/26 02:13:06;;;;;;;7.18;4.40;;;15.00;99.90;;;;;;5005209;28;20026;-70
2023/09/26 02:15:32;;;;;;;6.70;4.65;;;15.00;99.90;;;;;;5007706;28;20034;-71
2023/09/26 02:17:57;;;;;;;9.85;4.82;;;15.00;99.90;;;;;;5006353;28;20033;-71
2023/09/26 02:20:23;;;;;;;9.15;5.13;;;15.00;99.90;;;;;;5006087;28;20054;-72
2023/09/26 02:22:51;;;;;;;8.82;5.07;;;15.00;99.90;;;;;;5004532;28;20053;-71
2023/09/26 02:25:21;;;;;;;9.27;4.40;;;15.00;99.90;;;;;;5002343;28;20077;-72
2023/09/26 02:27:47;;;;;;;9.75;4.85;;;15.00;99.90;;;;;;5006813;28;20128;-70
2023/09/26 02:30:15;;;;;;;9.52;4.95;;;14.90;99.90;;;;;;4999345;28;20395;-71
2023/09/26 02:32:41;;;;;;;9.70;4.35;;;14.90;99.90;;;;;;5004658;28;20084;-71
2023/09/26 02:35:11;;;;;;;12.10;5.32;;;14.90;99.90;;;;;;5004983;28;20057;-70
2023/09/26 02:37:36;;;;;;;7.50;4.50;;;14.90;99.90;;;;;;5006683;28;20065;-71
2023/09/26 02:40:05;;;;;;;10.00;5.22;;;14.80;99.90;;;;;;5004202;28;20038;-71
2023/09/26 02:42:32;;;;;;;9.35;4.75;;;14.80;99.90;;;;;;5004414;28;20134;-70
2023/09/26 02:44:58;;;;;;;9.93;5.25;;;14.80;99.90;;;;;;5005448;28;20133;-70
2023/09/26 02:47:24;;;;;;;12.38;5.57;;;14.80;99.90;;;;;;5003402;28;20117;-70
2023/09/26 02:49:49;;;;;;;8.57;3.97;;;14.80;99.90;;;;;;5006113;28;20041;-71
2023/09/26 02:52:15;;;;;;;8.45;4.53;;;14.80;99.90;;;;;;5004602;28;20391;-70
2023/09/26 02:54:41;;;;;;;7.00;4.32;;;14.80;99.90;;;;;;5002127;28;20064;-70
2023/09/26 02:57:06;;;;;;;6.78;4.45;;;14.80;99.90;;;;;;5001203;28;20045;-70
2023/09/26 02:59:32;;;;;;;8.43;5.47;;;14.70;99.90;;;;;;5006018;28;20030;-72
2023/09/26 03:01:57;;;;;;;12.38;6.00;;;14.70;99.90;;;;;;5007096;28;20026;-72
2023/09/26 03:04:24;;;;;;;9.82;4.65;;;14.70;99.90;;;;;;4998728;28;20105;-70
2023/09/26 03:06:49;;;;;;;10.13;4.90;;;14.70;99.90;;;;;;5008519;28;20465;-72
2023/09/26 03:09:15;;;;;;;12.10;4.60;;;14.70;99.90;;;;;;4999655;28;20030;-72
2023/09/26 03:11:43;;;;;;;9.75;5.28;;;14.60;99.90;;;;;;5005838;28;20500;-70
2023/09/26 03:14:09;;;;;;;11.23;5.85;;;14.60;99.90;;;;;;5008832;28;20034;-71
2023/09/26 03:16:34;;;;;;;10.27;5.57;;;14.60;99.90;;;;;;5005689;28;20113;-72
2023/09/26 03:19:00;;;;;;;10.40;5.80;;;14.60;99.90;;;;;;5004373;28;20472;-70
2023/09/26 03:21:26;;;;;;;10.50;5.88;;;14.60;99.90;;;;;;5001026;28;20022;-71
2023/09/26 03:23:51;;;;;;;9.55;5.57;;;14.60;99.90;;;;;;5004027;28;20469;-70
2023/09/26 03:26:17;;;;;;;8.23;4.88;;;14.50;99.90;;;;;;5007001;28;20064;-71
2023/09/26 03:28:42;;;;;;;9.45;5.43;;;14.50;99.90;;;;;;5010052;28;20147;-70
2023/09/26 03:31:08;;;;;;;11.88;5.50;;;14.50;99.90;;;;;;5006478;28;20042;-70
2023/09/26 03:33:34;;;;;;;10.75;5.95;;;14.40;99.90;;;;;;5009435;28;20066;-70
2023/09/26 03:36:00;;;;;;;13.55;6.10;;;14.50;99.90;;;;;;5006282;28;20050;-69
2023/09/26 03:38:26;;;;;;;10.98;5.97;;;14.50;99.90;;;;;;5001899;28;20037;-70
2023/09/26 03:41:03;;;;;;;8.48;5.57;;;14.40;99.90;;;;;;5008010;28;20401;-76
2023/09/26 03:43:28;;;;;;;11.93;5.57;;;14.40;99.90;;;;;;5004152;28;20406;-72
2023/09/26 03:46:01;;;;;;;11.30;5.78;;;14.40;99.90;;;;;;5007532;28;20044;-70
2023/09/26 03:48:27;;;;;;;10.35;5.47;;;14.40;99.90;;;;;;5004684;28;20045;-70
2023/09/26 03:50:52;;;;;;;11.77;5.20;;;14.40;99.90;;;;;;4997674;28;20033;-71
2023/09/26 03:53:18;;;;;;;11.60;5.65;;;14.40;99.90;;;;;;5004724;28;20026;-71
2023/09/26 03:55:43;;;;;;;13.23;5.38;;;14.40;99.90;;;;;;5007856;28;20038;-70
2023/09/26 03:58:09;;;;;;;11.75;6.13;;;14.50;99.90;;;;;;4996643;28;20066;-70
2023/09/26 04:00:34;;;;;;;11.88;5.65;;;14.40;99.90;;;;;;5005582;28;20041;-71
2023/09/26 04:03:01;;;;;;;9.27;5.07;;;14.50;99.90;;;;;;4995847;28;20038;-72
2023/09/26 04:05:27;;;;;;;15.10;6.53;;;14.50;99.90;;;;;;4999915;28;20046;-72
2023/09/26 04:07:52;;;;;;;12.07;5.30;;;14.50;99.90;;;;;;5009628;28;20096;-72
2023/09/26 04:10:18;;;;;;;15.48;6.28;;;14.50;99.90;;;;;;5006311;28;20072;-71
2023/09/26 04:12:44;;;;;;;11.68;5.95;;;14.50;99.90;;;;;;5003599;28;20052;-71
2023/09/26 04:15:09;;;;;;;9.45;5.53;;;14.50;99.90;;;;;;5002259;28;20398;-71
2023/09/26 04:17:35;;;;;;;10.75;5.68;;;14.50;99.90;;;;;;5007289;28;20038;-71
2023/09/26 04:20:12;;;;;;;9.55;6.00;;;14.50;99.90;;;;;;5012486;28;20038;-70
2023/09/26 04:22:37;;;;;;;9.52;5.28;;;14.50;99.90;;;;;;5006756;28;20153;-71
2023/09/26 04:25:03;;;;;;;9.25;5.63;;;14.40;99.90;;;;;;5006363;28;20486;-70
2023/09/26 04:27:29;;;;;;;10.32;5.50;;;14.50;99.90;;;;;;5011235;28;20034;-71
2023/09/26 04:29:54;;;;;;;8.82;5.32;;;14.40;99.90;;;;;;5006814;28;20084;-71
2023/09/26 04:32:20;;;;;;;10.63;5.32;;;14.40;99.90;;;;;;5004664;28;20030;-71
2023/09/26 04:34:46;;;;;;;19.33;6.45;;;14.40;99.90;;;;;;5005188;28;20112;-70
2023/09/26 04:37:11;;;;;;;10.80;5.75;;;14.30;99.90;;;;;;5004799;28;20026;-71
2023/09/26 04:39:37;;;;;;;10.60;5.60;;;14.30;99.90;;;;;;5006411;28;20053;-70
2023/09/26 04:42:03;;;;;;;11.98;6.03;;;14.30;99.90;;;;;;5003449;28;20109;-71
2023/09/26 04:44:28;;;;;;;9.85;5.70;;;14.30;99.90;;;;;;5003955;28;20029;-70
2023/09/26 04:46:54;;;;;;;10.98;5.32;;;14.20;99.90;;;;;;5004088;28;20029;-70
2023/09/26 04:49:19;;;;;;;14.50;6.20;;;14.20;99.90;;;;;;5004904;28;20030;-71
2023/09/26 04:51:45;;;;;;;12.07;5.72;;;14.20;99.90;;;;;;5008157;28;20101;-70
2023/09/26 04:54:10;;;;;;;12.02;5.65;;;14.20;99.90;;;;;;5013674;28;20026;-72
2023/09/26 04:56:36;;;;;;;10.85;5.40;;;14.20;99.90;;;;;;5007015;28;20049;-71
2023/09/26 04:59:01;;;;;;;10.30;5.57;;;14.10;99.90;;;;;;5006360;28;20109;-70
2023/09/26 05:01:27;;;;;;;10.25;5.30;;;14.20;99.90;;;;;;5010209;28;20041;-69
2023/09/26 05:03:53;;;;;;;9.63;5.10;;;14.10;99.90;;;;;;5007174;28;20037;-73
2023/09/26 05:06:18;;;;;;;13.30;5.90;;;14.20;99.90;;;;;;5016128;28;20052;-71
2023/09/26 05:08:44;;;;;;;8.38;5.32;;;14.20;99.90;;;;;;5006089;28;20525;-72
2023/09/26 05:11:14;;;;;;;9.07;5.32;;;14.20;99.90;;;;;;5005095;28;20042;-70
2023/09/26 05:13:40;;;;;;;15.70;5.63;;;14.20;99.90;;;;;;5004550;28;20037;-72
2023/09/26 05:16:12;;;;;;;11.90;6.05;;;14.20;99.90;;;;;;5002209;28;20030;-72
2023/09/26 05:18:38;;;;;;;15.55;5.80;;;14.20;99.90;;;;;;5007277;28;20034;-71
2023/09/26 05:21:08;;;;;;;12.75;5.70;;;14.20;99.90;;;;;;5006054;28;20033;-71
2023/09/26 05:23:34;;;;;;;11.75;5.55;;;14.20;99.90;;;;;;5002768;28;20312;-70
2023/09/26 05:26:12;;;;;;;11.60;6.13;;;14.20;99.90;;;;;;5007025;28;20033;-70
2023/09/26 05:28:38;;;;;;;16.48;6.28;;;14.20;99.90;;;;;;5005486;28;20042;-71
2023/09/26 05:31:04;;;;;;;11.82;5.35;;;14.20;99.90;;;;;;5007447;28;20048;-71
2023/09/26 05:33:30;;;;;;;12.18;5.95;;;14.10;99.90;;;;;;5007006;28;20030;-71
2023/09/26 05:35:55;;;;;;;10.70;5.30;;;14.10;99.90;;;;;;5004542;28;20170;-71
2023/09/26 05:38:22;;;;;;;10.70;5.57;;;14.10;99.90;;;;;;5005043;28;20080;-71
2023/09/26 05:40:49;;;;;;;10.02;5.38;;;14.00;99.90;;;;;;5005435;28;20201;-71
2023/09/26 05:43:15;;;;;;;9.60;5.70;;;14.10;99.90;;;;;;5002037;28;20045;-72
2023/09/26 05:45:40;;;;;;;9.80;5.88;;;14.00;99.90;;;;;;5005978;28;20038;-71
2023/09/26 05:48:06;;;;;;;10.07;5.30;;;14.00;99.90;;;;;;5004847;28;20048;-71
2023/09/26 05:50:32;;;;;;;12.35;5.45;;;14.00;99.90;;;;;;5016613;28;20038;-71
2023/09/26 05:52:59;;;;;;;10.90;6.13;;;14.00;99.90;;;;;;5003717;28;20068;-72
2023/09/26 05:55:25;;;;;;;11.15;5.63;;;14.00;99.90;;;;;;5002973;28;20137;-70
2023/09/26 05:57:50;;;;;;;10.27;6.20;;;14.00;99.90;;;;;;4998829;28;20121;-72
2023/09/26 06:00:16;;;;;;;12.02;5.93;;;14.00;99.90;;;;;;5001807;28;20041;-72
2023/09/26 06:02:43;;;;;;;14.23;6.63;;;14.00;99.90;;;;;;5004306;28;20045;-72
2023/09/26 06:05:09;;;;;;;9.60;5.38;;;14.00;99.90;;;;;;5008953;28;20105;-72
2023/09/26 06:07:35;;;;;;;12.98;6.05;;;14.00;99.90;;;;;;5001974;28;20065;-70
2023/09/26 06:10:00;;;;;;;12.93;6.43;;;14.10;99.90;;;;;;5008070;28;20104;-71
2023/09/26 06:12:26;;;;;;;15.05;5.60;;;14.10;99.90;;;;;;5002659;28;20482;-71
2023/09/26 06:14:51;;;;;;;12.27;6.00;;;14.20;99.90;;;;;;5007305;28;20417;-71
2023/09/26 06:17:17;;;;;;;10.20;5.28;;;14.30;99.90;;;;;;5003361;28;20038;-71
2023/09/26 06:19:47;;;;;;;13.40;5.80;;;14.30;99.90;;;;;;5008907;28;20030;-71
2023/09/26 06:22:13;;;;;;;10.65;6.00;;;14.40;99.90;;;;;;5005872;28;20046;-71
2023/09/26 06:24:39;;;;;;;14.60;5.35;;;14.50;99.90;;;;;;5002588;28;20040;-71
2023/09/26 06:27:04;;;;;;;9.50;5.20;;;14.50;99.90;;;;;;5002196;28;20030;-72
2023/09/26 06:29:30;;;;;;;16.63;5.68;;;14.50;99.90;;;;;;5003448;28;20070;-70
2023/09/26 06:31:55;;;;;;;12.50;6.05;;;14.60;99.90;;;;;;5005349;28;20037;-71
2023/09/26 06:34:21;;;;;;;11.50;5.72;;;14.60;99.90;;;;;;5007202;28;20030;-71
2023/09/26 06:36:50;;;;;;;10.15;5.93;;;14.70;99.90;;;;;;5007113;28;20447;-71
2023/09/26 06:39:15;;;;;;;14.30;6.20;;;14.80;99.90;;;;;;5007607;28;20056;-71
2023/09/26 06:41:41;;;;;;;16.67;5.80;;;14.80;99.90;;;;;;5006290;28;20490;-71
2023/09/26 06:44:09;;;;;;;9.50;5.25;;;14.90;99.90;;;;;;5005682;28;20030;-71
2023/09/26 06:46:35;;;;;;;9.60;5.03;;;15.00;99.90;;;;;;5008067;28;20073;-71
2023/09/26 06:49:01;;;;;;;11.02;4.97;;;15.10;99.90;;;;;;5006357;28;20038;-71
2023/09/26 06:51:26;;;;;;;11.65;5.38;;;15.10;99.90;;;;;;5008398;28;20034;-71
2023/09/26 06:53:52;;;;;;;14.23;6.45;;;15.10;99.90;;;;;;5001902;28;20034;-71
2023/09/26 06:56:18;;;;;;;11.80;5.85;;;15.20;99.90;;;;;;5005138;28;20083;-71
2023/09/26 06:58:43;;;;;;;9.43;5.18;;;15.30;99.90;;;;;;5007931;28;20061;-71
2023/09/26 07:01:14;;;;;;;11.18;6.40;;;15.30;99.90;;;;;;5008128;28;20459;-71
2023/09/26 07:03:40;;;;;;;12.48;5.95;;;15.40;99.90;;;;;;5005116;28;20046;-71
2023/09/26 07:06:13;;;;;;;12.77;4.78;;;15.40;99.90;;;;;;5001646;28;20052;-71
2023/09/26 07:08:40;;;;;;;13.52;5.90;;;15.50;99.90;;;;;;5006218;28;20124;-71
2023/09/26 07:11:06;;;;;;;10.75;5.10;;;15.50;99.90;;;;;;5003881;28;20033;-73
2023/09/26 07:13:35;;;;;;;9.68;4.88;;;15.60;99.90;;;;;;5003868;28;20052;-72
2023/09/26 07:16:03;;;;;;;9.48;5.53;;;15.60;99.90;;;;;;5002604;28;20089;-71
2023/09/26 07:18:30;;;;;;;8.98;5.22;;;15.70;99.90;;;;;;4998451;28;20048;-71
2023/09/26 07:20:59;;;;;;;8.93;5.03;;;15.80;99.90;;;;;;5000819;28;20078;-72
2023/09/26 07:23:25;;;;;;;7.90;4.82;;;15.80;99.90;;;;;;5002535;28;20470;-70
2023/09/26 07:25:50;;;;;;;11.20;4.63;;;15.90;99.90;;;;;;5005188;28;20068;-71
2023/09/26 07:28:16;;;;;;;13.25;5.85;;;15.90;99.90;;;;;;5002187;28;20119;-71
2023/09/26 07:30:44;;;;;;;9.63;4.60;;;16.00;99.90;;;;;;4998659;28;20097;-71
2023/09/26 07:33:10;;;;;;;11.77;5.30;;;16.00;99.90;;;;;;4998816;28;20045;-71
2023/09/26 07:35:35;;;;;;;7.85;4.65;;;16.00;99.90;;;;;;5005618;28;20136;-70
2023/09/26 07:38:01;;;;;;;12.38;5.63;;;16.00;99.90;;;;;;4999400;28;20482;-71
2023/09/26 07:40:27;;;;;;;9.35;5.32;;;16.00;99.90;;;;;;4996672;28;20046;-70
2023/09/26 07:42:52;;;;;;;11.30;5.22;;;16.00;99.90;;;;;;4998642;28;20034;-71
2023/09/26 07:45:18;;;;;;;9.93;5.15;;;16.00;99.90;;;;;;4998242;28;20107;-72
2023/09/26 07:47:44;;;;;;;8.95;4.88;;;15.90;99.90;;;;;;4997749;28;20041;-70
2023/09/26 07:50:10;;;;;;;11.98;6.18;;;16.00;99.90;;;;;;4997075;28;20060;-70
2023/09/26 07:52:36;;;;;;;15.18;5.43;;;15.90;99.90;;;;;;5001172;28;20129;-70
2023/09/26 07:55:02;;;;;;;10.73;6.28;;;16.00;99.90;;;;;;5000333;28;20130;-70
2023/09/26 07:57:27;;;;;;;11.07;5.30;;;16.00;99.90;;;;;;4996197;28;20030;-70
2023/09/26 07:59:53;;;;;;;12.30;5.03;;;16.00;99.90;;;;;;5009028;28;20034;-69
2023/09/26 08:02:20;;;;;;;11.30;5.85;;;16.10;99.90;;;;;;5013874;28;20063;-70
2023/09/26 08:04:46;;;;;;;10.55;5.85;;;16.20;99.90;;;;;;5006595;28;20422;-70
2023/09/26 08:07:12;;;;;;;10.27;4.80;;;16.40;99.90;;;;;;5006132;28;20038;-69
2023/09/26 08:09:38;;;;;;;8.73;4.93;;;16.50;99.90;;;;;;5006666;28;20465;-71
2023/09/26 08:12:04;;;;;;;10.77;5.07;;;16.50;99.90;;;;;;5006660;28;20049;-70
2023/09/26 08:14:30;;;;;;;8.70;4.45;;;16.50;99.90;;;;;;5003374;28;20038;-71
2023/09/26 08:16:55;;;;;;;10.02;4.57;;;16.50;99.90;;;;;;5005616;28;20109;-70
2023/09/26 08:19:21;;;;;;;12.90;4.78;;;16.50;99.90;;;;;;5007007;28;20045;-71
2023/09/26 08:21:47;;;;;;;13.07;5.15;;;16.50;99.90;;;;;;5006352;28;20444;-70
2023/09/26 08:24:12;;;;;;;11.13;5.25;;;16.60;99.90;;;;;;5008257;28;20080;-71
2023/09/26 08:26:38;;;;;;;7.53;4.57;;;16.70;99.90;;;;;;5005132;28;20042;-70
2023/09/26 08:29:05;;;;;;;12.35;4.82;;;16.80;99.90;;;;;;5004949;28;20168;-72
2023/09/26 08:31:31;;;;;;;9.38;4.68;;;16.90;99.90;;;;;;5001787;28;20512;-69
2023/09/26 08:33:57;;;;;;;8.00;4.60;;;17.00;99.90;;;;;;5003382;28;20041;-70
2023/09/26 08:36:22;;;;;;;7.88;3.90;;;17.10;99.90;;;;;;5005852;28;20045;-70
2023/09/26 08:38:50;;;;;;;9.88;4.93;;;17.10;99.90;;;;;;5006231;28;20045;-70
2023/09/26 08:41:17;;;;;;;9.43;4.45;;;17.20;99.90;;;;;;5000104;28;20148;-70
2023/09/26 08:43:43;;;;;;;10.77;5.25;;;17.20;99.90;;;;;;5001600;28;20044;-71
2023/09/26 08:46:09;;;;;;;8.05;4.68;;;17.30;99.90;;;;;;5003353;28;20030;-72
2023/09/26 08:48:36;;;;;;;8.32;4.25;;;17.30;99.90;;;;;;5004800;28;20057;-71
2023/09/26 08:51:02;;;;;;;9.95;4.47;;;17.30;99.90;;;;;;5002528;28;20037;-70
2023/09/26 08:53:29;;;;;;;11.88;4.88;;;17.30;99.90;;;;;;5001228;28;20045;-72
2023/09/26 08:55:54;;;;;;;9.02;3.80;;;17.40;99.90;;;;;;4996133;28;20456;-71
2023/09/26 08:58:21;;;;;;;6.50;3.83;;;17.30;99.90;;;;;;4997680;28;20128;-70
2023/09/26 09:00:47;;;;;;;7.68;3.88;;;17.40;99.90;;;;;;5004918;28;20038;-70
2023/09/26 09:03:13;;;;;;;13.30;4.97;;;17.50;99.90;;;;;;5008469;28;20117;-71
2023/09/26 09:05:40;;;;;;;9.15;4.68;;;17.50;99.90;;;;;;5002363;28;20161;-70
2023/09/26 09:08:07;;;;;;;7.80;3.95;;;17.60;99.90;;;;;;5004435;28;20053;-70
2023/09/26 09:10:50;;;;;;;10.10;4.20;;;17.70;99.90;;;;;;5004891;28;20030;-70
2023/09/26 09:13:27;;;;;;;10.48;3.85;;;17.90;99.90;;;;;;5000582;28;20130;-72
2023/09/26 09:16:05;;;;;;;10.30;4.80;;;17.90;99.90;;;;;;5013843;28;20042;-72
2023/09/26 09:18:31;;;;;;;7.43;3.83;;;18.10;99.90;;;;;;5001940;28;20038;-71
2023/09/26 09:20:56;;;;;;;7.85;4.50;;;18.10;99.90;;;;;;5001610;28;20034;-70
2023/09/26 09:23:22;;;;;;;8.75;4.50;;;18.20;99.90;;;;;;5003503;28;20581;-72
2023/09/26 09:25:50;;;;;;;8.52;3.72;;;18.30;99.90;;;;;;5001156;28;20421;-71
2023/09/26 09:28:20;;;;;;;7.32;3.40;;;18.40;99.90;;;;;;5001516;28;20149;-72
2023/09/26 09:30:46;;;;;;;8.18;4.05;;;18.40;99.90;;;;;;5001728;28;20049;-72
2023/09/26 09:33:13;;;;;;;9.57;3.88;;;18.40;99.90;;;;;;5006339;28;20029;-71
2023/09/26 09:35:39;;;;;;;6.13;3.60;;;18.40;99.90;;;;;;5011965;28;20654;-71
2023/09/26 09:38:08;;;;;;;7.82;3.85;;;18.40;99.90;;;;;;5010628;28;20044;-71
2023/09/26 09:40:34;;;;;;;12.77;3.72;;;18.50;99.90;;;;;;5016004;28;20113;-70
2023/09/26 09:43:00;;;;;;;8.48;2.78;;;18.40;99.90;;;;;;5015225;28;20546;-70
2023/09/26 09:45:29;;;;;;;8.27;2.58;;;18.40;99.90;;;;;;5012007;28;20105;-71
2023/09/26 09:47:58;;;;;;;4.35;2.53;;;18.40;99.90;;;;;;5008411;28;20039;-71
2023/09/26 09:50:26;;;;;;;6.20;3.28;;;18.40;99.90;;;;;;5013207;28;20037;-71
2023/09/26 09:52:56;;;;;;;5.93;3.13;;;18.50;99.90;;;;;;5007989;28;20042;-70
2023/09/26 09:55:28;;;;;;;9.32;3.55;;;18.50;99.90;;;;;;5011941;28;20505;-71
2023/09/26 09:57:56;;;;;;;7.50;3.58;;;18.60;99.90;;;;;;5009828;28;20026;-70
2023/09/26 10:00:25;;;;;;;5.53;3.00;;;18.60;99.90;;;;;;5008297;28;20044;-70
2023/09/26 10:02:52;;;;;;;6.55;3.45;;;18.60;99.90;;;;;;5010185;28;20125;-71
2023/09/26 10:05:21;;;;;;;7.15;3.30;;;18.60;99.90;;;;;;5012249;28;20034;-70
2023/09/26 10:07:49;;;;;;;6.30;3.57;;;18.60;99.90;;;;;;5008300;28;20378;-70
2023/09/26 10:10:17;;;;;;;8.13;3.85;;;18.70;99.90;;;;;;5008288;28;20286;-71
2023/09/26 10:12:44;;;;;;;8.30;3.55;;;18.80;99.90;;;;;;5014623;28;20495;-71
2023/09/26 10:15:11;;;;;;;7.40;3.25;;;18.80;99.90;;;;;;5011189;28;20033;-71
2023/09/26 10:17:39;;;;;;;5.82;2.92;;;18.80;99.90;;;;;;5006438;28;20034;-70
2023/09/26 10:20:09;;;;;;;11.40;4.00;;;18.80;99.90;;;;;;5003925;28;20061;-72
2023/09/26 10:22:37;;;;;;;5.78;2.83;;;18.80;99.90;;;;;;5006092;28;22013;-71
2023/09/26 10:25:04;;;;;;;6.70;3.30;;;18.80;99.90;;;;;;5000678;28;20078;-70
2023/09/26 10:27:33;;;;;;;4.50;2.65;;;18.90;99.90;;;;;;5004599;28;20471;-70
2023/09/26 10:30:02;;;;;;;6.47;2.50;;;19.10;99.90;;;;;;5007846;28;20056;-70
2023/09/26 10:32:35;;;;;;;10.25;2.58;;;19.20;99.90;;;;;;5002944;28;20402;-70
2023/09/26 10:35:13;;;;;;;7.97;3.80;;;19.30;99.90;;;;;;5004061;28;20085;-69
2023/09/26 10:37:44;;;;;;;4.50;2.60;;;19.40;99.90;;;;;;5008295;28;20058;-70
2023/09/26 10:40:12;;;;;;;9.60;3.10;;;19.50;99.90;;;;;;5000961;28;20030;-70
2023/09/26 10:42:42;;;;;;;5.63;2.88;;;19.50;99.90;;;;;;5005516;28;20060;-71
2023/09/26 10:45:09;;;;;;;6.07;3.22;;;19.60;99.90;;;;;;5002869;28;20026;-70
2023/09/26 10:47:38;;;;;;;12.88;3.60;;;19.60;99.90;;;;;;5005613;28;20034;-70
2023/09/26 10:50:05;;;;;;;8.38;3.03;;;19.70;99.90;;;;;;5000020;28;20053;-71
2023/09/26 10:52:31;;;;;;;9.60;2.78;;;19.80;99.90;;;;;;5001354;28;20038;-70
2023/09/26 10:54:57;;;;;;;4.78;2.40;;;19.90;99.90;;;;;;5001608;28;20516;-71
2023/09/26 10:57:22;;;;;;;6.03;2.40;;;20.00;99.90;;;;;;5007364;28;20026;-71
2023/09/26 10:59:51;;;;;;;7.18;2.47;;;20.10;99.90;;;;;;5017019;28;20030;-70
2023/09/26 11:02:17;;;;;;;5.65;2.00;;;20.10;99.90;;;;;;5012395;28;20040;-70
2023/09/26 11:04:43;;;;;;;4.18;2.28;;;20.20;99.90;;;;;;5014610;28;20041;-70
2023/09/26 11:07:09;;;;;;;3.10;2.08;;;20.30;99.90;;;;;;5012624;28;20041;-71
2023/09/26 11:09:44;;;;;;;4.10;2.45;;;20.30;99.90;;;;;;5011283;28;20042;-70
2023/09/26 11:12:11;;;;;;;9.88;2.85;;;20.40;99.90;;;;;;5012319;28;20057;-71
2023/09/26 11:14:37;;;;;;;4.30;2.35;;;20.40;99.90;;;;;;5008692;28;20030;-70
2023/09/26 11:17:04;;;;;;;5.68;2.50;;;20.40;99.90;;;;;;5000539;28;20044;-70
2023/09/26 11:19:30;;;;;;;7.63;3.10;;;20.40;99.90;;;;;;5006988;28;20033;-71
2023/09/26 11:21:57;;;;;;;6.40;2.90;;;20.40;99.90;;;;;;5017508;28;20128;-73
2023/09/26 11:24:28;;;;;;;4.05;2.45;;;20.40;99.90;;;;;;5009435;28;20030;-72
2023/09/26 11:26:57;;;;;;;5.53;3.22;;;20.50;99.90;;;;;;5005181;28;20061;-70
2023/09/26 11:29:24;;;;;;;6.97;2.97;;;20.70;99.90;;;;;;5001624;28;20030;-71
2023/09/26 11:31:51;;;;;;;4.47;2.03;;;20.70;99.90;;;;;;5005335;28;20129;-71
2023/09/26 11:34:19;;;;;;;4.40;2.33;;;20.80;99.90;;;;;;5008020;28;20132;-71
2023/09/26 11:36:44;;;;;;;4.97;1.45;;;20.90;99.90;;;;;;5004009;28;20085;-70
2023/09/26 11:39:20;;;;;;;4.85;2.00;;;21.00;99.90;;;;;;5011680;28;20058;-70
2023/09/26 11:41:46;;;;;;;3.40;1.83;;;21.10;99.90;;;;;;5017142;28;20038;-69
2023/09/26 11:44:13;;;;;;;6.90;1.98;;;21.10;99.90;;;;;;5003621;28;20096;-72
2023/09/26 11:46:47;;;;;;;6.22;1.88;;;21.20;99.90;;;;;;5008286;28;20378;-70
2023/09/26 11:49:14;;;;;;;5.50;1.45;;;21.10;99.90;;;;;;5000038;28;20038;-70
2023/09/26 11:51:40;;;;;;;4.78;1.33;;;21.20;99.90;;;;;;5013170;28;20069;-71
2023/09/26 11:54:06;;;;;;;2.40;1.40;;;21.20;99.90;;;;;;5008067;28;20068;-70
2023/09/26 11:56:33;;;;;;;7.18;2.25;;;21.30;99.90;;;;;;5006842;28;20586;-70
2023/09/26 11:59:00;;;;;;;3.60;1.48;;;21.40;99.90;;;;;;5007210;28;20074;-70
2023/09/26 12:01:25;;;;;;;3.88;1.50;;;21.30;99.90;;;;;;5005528;28;20038;-72
2023/09/26 12:03:51;;;;;;;3.60;1.30;;;21.30;99.90;;;;;;5003099;28;20055;-70
2023/09/26 12:06:17;;;;;;;10.20;1.90;;;21.20;99.90;;;;;;5019904;28;20087;-73
2023/09/26 12:08:43;;;;;;;4.00;1.38;;;21.20;99.90;;;;;;5009489;28;20417;-73
2023/09/26 12:11:10;;;;;;;5.43;1.65;;;21.10;99.90;;;;;;5013963;28;20061;-72
2023/09/26 12:13:36;;;;;;;4.30;1.80;;;21.20;99.90;;;;;;5012339;28;20030;-72
2023/09/26 12:16:01;;;;;;;4.40;1.85;;;21.30;99.90;;;;;;5000000;28;20045;-72
2023/09/26 12:18:27;;;;;;;3.45;1.45;;;21.40;99.90;;;;;;5001432;28;20084;-72
2023/09/26 12:20:55;;;;;;;1.65;1.10;;;21.40;99.90;;;;;;5002364;28;20034;-72
2023/09/26 12:23:21;;;;;;;4.38;1.40;;;21.20;99.90;;;;;;5003782;28;20056;-72
2023/09/26 12:25:48;;;;;;;6.75;1.60;;;21.10;99.90;;;;;;5013014;28;20494;-71
2023/09/26 12:28:13;;;;;;;2.25;1.27;;;21.10;99.90;;;;;;5006401;28;20072;-71
2023/09/26 12:30:40;;;;;;;6.10;1.60;;;21.00;99.90;;;;;;5007111;28;20406;-71
2023/09/26 12:33:06;;;;;;;3.78;1.17;;;21.00;99.90;;;;;;5002427;28;20049;-71
2023/09/26 12:35:32;;;;;;;2.15;1.15;;;21.10;99.90;;;;;;5009938;28;20112;-71
2023/09/26 12:37:58;;;;;;;3.55;1.17;;;21.10;99.90;;;;;;5009063;28;20038;-72
2023/09/26 12:40:23;;;;;;;2.22;1.20;;;21.10;99.90;;;;;;5006127;28;20531;-71